sensor_id;sensor_type;location;lat;lon;timestamp;P1;durP1;ratioP1;P2;durP2;ratioP2
13421;SDS011;6782;55.904;13.396;2023-10-31T00:02:07;10.30;;;4.17;;
13421;SDS011;6782;55.904;13.396;2023-10-31T00:04:56;7.80;;;4.57;;
13421;SDS011;6782;55.904;13.396;2023-10-31T00:07:43;13.73;;;4.33;;
13421;SDS011;6782;55.904;13.396;2023-10-31T00:10:30;6.63;;;4.30;;
13421;SDS011;6782;55.904;13.396;2023-10-31T00:13:17;8.97;;;4.97;;
13421;SDS011;6782;55.904;13.396;2023-10-31T00:16:04;4.10;;;3.70;;
13421;SDS011;6782;55.904;13.396;2023-10-31T00:18:51;6.17;;;3.57;;
13421;SDS011;6782;55.904;13.396;2023-10-31T00:21:40;6.83;;;4.40;;
13421;SDS011;6782;55.904;13.396;2023-10-31T00:24:27;9.70;;;3.93;;
13421;SDS011;6782;55.904;13.396;2023-10-31T00:27:14;11.17;;;4.20;;
13421;SDS011;6782;55.904;13.396;2023-10-31T00:30:01;7.40;;;3.90;;
13421;SDS011;6782;55.904;13.396;2023-10-31T00:32:48;20.17;;;4.83;;
13421;SDS011;6782;55.904;13.396;2023-10-31T00:35:35;10.03;;;4.63;;
13421;SDS011;6782;55.904;13.396;2023-10-31T00:38:24;64.67;;;7.87;;
13421;SDS011;6782;55.904;13.396;2023-10-31T00:41:11;6.80;;;4.40;;
13421;SDS011;6782;55.904;13.396;2023-10-31T00:43:58;25.77;;;5.93;;
13421;SDS011;6782;55.904;13.396;2023-10-31T00:46:45;37.13;;;5.90;;
13421;SDS011;6782;55.904;13.396;2023-10-31T00:49:32;44.33;;;7.40;;
13421;SDS011;6782;55.904;13.396;2023-10-31T00:52:19;25.87;;;5.83;;
13421;SDS011;6782;55.904;13.396;2023-10-31T00:55:08;27.83;;;4.87;;
13421;SDS011;6782;55.904;13.396;2023-10-31T00:57:55;17.37;;;4.40;;
13421;SDS011;6782;55.904;13.396;2023-10-31T01:00:42;27.13;;;6.00;;
13421;SDS011;6782;55.904;13.396;2023-10-31T01:03:29;8.20;;;3.93;;
13421;SDS011;6782;55.904;13.396;2023-10-31T01:06:16;4.97;;;3.93;;
13421;SDS011;6782;55.904;13.396;2023-10-31T01:09:03;14.30;;;5.53;;
13421;SDS011;6782;55.904;13.396;2023-10-31T01:11:52;20.40;;;6.83;;
13421;SDS011;6782;55.904;13.396;2023-10-31T01:14:39;34.53;;;6.97;;
13421;SDS011;6782;55.904;13.396;2023-10-31T01:17:26;31.53;;;7.73;;
13421;SDS011;6782;55.904;13.396;2023-10-31T01:20:13;10.07;;;6.60;;
13421;SDS011;6782;55.904;13.396;2023-10-31T01:23:00;9.97;;;5.97;;
13421;SDS011;6782;55.904;13.396;2023-10-31T01:25:47;17.20;;;7.37;;
13421;SDS011;6782;55.904;13.396;2023-10-31T01:28:36;14.87;;;7.50;;
13421;SDS011;6782;55.904;13.396;2023-10-31T01:31:23;15.43;;;7.27;;
13421;SDS011;6782;55.904;13.396;2023-10-31T01:34:10;9.37;;;6.67;;
13421;SDS011;6782;55.904;13.396;2023-10-31T01:36:57;12.77;;;6.03;;
13421;SDS011;6782;55.904;13.396;2023-10-31T01:39:44;12.73;;;7.00;;
13421;SDS011;6782;55.904;13.396;2023-10-31T01:42:31;13.83;;;6.67;;
13421;SDS011;6782;55.904;13.396;2023-10-31T01:45:20;9.70;;;6.10;;
13421;SDS011;6782;55.904;13.396;2023-10-31T01:48:07;11.47;;;6.97;;
13421;SDS011;6782;55.904;13.396;2023-10-31T01:50:54;11.57;;;6.73;;
13421;SDS011;6782;55.904;13.396;2023-10-31T01:53:42;9.47;;;6.63;;
13421;SDS011;6782;55.904;13.396;2023-10-31T01:56:29;11.10;;;7.40;;
13421;SDS011;6782;55.904;13.396;2023-10-31T01:59:16;9.90;;;7.10;;
13421;SDS011;6782;55.904;13.396;2023-10-31T02:02:05;15.20;;;8.43;;
13421;SDS011;6782;55.904;13.396;2023-10-31T02:04:53;10.30;;;8.17;;
13421;SDS011;6782;55.904;13.396;2023-10-31T02:07:40;10.40;;;9.30;;
13421;SDS011;6782;55.904;13.396;2023-10-31T02:10:32;12.17;;;9.33;;
13421;SDS011;6782;55.904;13.396;2023-10-31T02:13:19;13.47;;;9.80;;
13421;SDS011;6782;55.904;13.396;2023-10-31T02:16:06;11.87;;;9.33;;
13421;SDS011;6782;55.904;13.396;2023-10-31T02:18:55;14.07;;;10.70;;
13421;SDS011;6782;55.904;13.396;2023-10-31T02:21:44;16.53;;;10.13;;
13421;SDS011;6782;55.904;13.396;2023-10-31T02:24:31;14.63;;;10.37;;
13421;SDS011;6782;55.904;13.396;2023-10-31T02:27:18;12.20;;;9.57;;
13421;SDS011;6782;55.904;13.396;2023-10-31T02:30:05;8.70;;;7.90;;
13421;SDS011;6782;55.904;13.396;2023-10-31T02:32:53;15.23;;;9.53;;
13421;SDS011;6782;55.904;13.396;2023-10-31T02:35:40;14.13;;;10.63;;
13421;SDS011;6782;55.904;13.396;2023-10-31T02:38:29;10.40;;;7.87;;
13421;SDS011;6782;55.904;13.396;2023-10-31T02:41:16;10.63;;;8.47;;
13421;SDS011;6782;55.904;13.396;2023-10-31T02:44:04;9.47;;;8.50;;
13421;SDS011;6782;55.904;13.396;2023-10-31T02:46:51;11.87;;;8.73;;
13421;SDS011;6782;55.904;13.396;2023-10-31T02:49:38;10.57;;;8.80;;
13421;SDS011;6782;55.904;13.396;2023-10-31T02:52:25;12.07;;;8.57;;
13421;SDS011;6782;55.904;13.396;2023-10-31T02:55:14;9.07;;;7.57;;
13421;SDS011;6782;55.904;13.396;2023-10-31T02:58:01;9.47;;;6.90;;
13421;SDS011;6782;55.904;13.396;2023-10-31T03:00:48;14.10;;;7.93;;
13421;SDS011;6782;55.904;13.396;2023-10-31T03:03:35;9.63;;;8.07;;
13421;SDS011;6782;55.904;13.396;2023-10-31T03:06:22;10.23;;;7.00;;
13421;SDS011;6782;55.904;13.396;2023-10-31T03:09:09;9.67;;;6.90;;
13421;SDS011;6782;55.904;13.396;2023-10-31T03:11:58;11.63;;;7.23;;
13421;SDS011;6782;55.904;13.396;2023-10-31T03:14:45;14.03;;;7.83;;
13421;SDS011;6782;55.904;13.396;2023-10-31T03:17:32;9.53;;;7.30;;
13421;SDS011;6782;55.904;13.396;2023-10-31T03:20:19;7.00;;;6.30;;
13421;SDS011;6782;55.904;13.396;2023-10-31T03:23:06;12.87;;;7.23;;
13421;SDS011;6782;55.904;13.396;2023-10-31T03:25:53;18.07;;;8.10;;
13421;SDS011;6782;55.904;13.396;2023-10-31T03:28:42;12.60;;;7.83;;
13421;SDS011;6782;55.904;13.396;2023-10-31T03:31:29;13.53;;;6.93;;
13421;SDS011;6782;55.904;13.396;2023-10-31T03:34:16;10.43;;;7.70;;
13421;SDS011;6782;55.904;13.396;2023-10-31T03:37:04;13.27;;;8.00;;
13421;SDS011;6782;55.904;13.396;2023-10-31T03:39:51;15.80;;;9.70;;
13421;SDS011;6782;55.904;13.396;2023-10-31T03:42:38;21.13;;;10.33;;
13421;SDS011;6782;55.904;13.396;2023-10-31T03:45:27;18.10;;;9.87;;
13421;SDS011;6782;55.904;13.396;2023-10-31T03:48:15;17.67;;;10.13;;
13421;SDS011;6782;55.904;13.396;2023-10-31T03:51:02;14.93;;;10.30;;
13421;SDS011;6782;55.904;13.396;2023-10-31T03:53:50;14.63;;;9.67;;
13421;SDS011;6782;55.904;13.396;2023-10-31T03:56:40;17.10;;;10.20;;
13421;SDS011;6782;55.904;13.396;2023-10-31T03:59:27;17.73;;;10.90;;
13421;SDS011;6782;55.904;13.396;2023-10-31T04:02:15;12.40;;;9.60;;
13421;SDS011;6782;55.904;13.396;2023-10-31T04:05:02;19.13;;;10.43;;
13421;SDS011;6782;55.904;13.396;2023-10-31T04:07:50;13.00;;;9.97;;
13421;SDS011;6782;55.904;13.396;2023-10-31T04:10:37;12.30;;;10.97;;
13421;SDS011;6782;55.904;13.396;2023-10-31T04:13:24;17.27;;;10.93;;
13421;SDS011;6782;55.904;13.396;2023-10-31T04:16:11;22.50;;;12.53;;
13421;SDS011;6782;55.904;13.396;2023-10-31T04:19:00;15.17;;;11.33;;
13421;SDS011;6782;55.904;13.396;2023-10-31T04:21:47;21.83;;;11.63;;
13421;SDS011;6782;55.904;13.396;2023-10-31T04:24:34;14.63;;;10.50;;
13421;SDS011;6782;55.904;13.396;2023-10-31T04:27:21;11.83;;;10.17;;
13421;SDS011;6782;55.904;13.396;2023-10-31T04:30:09;20.57;;;12.30;;
13421;SDS011;6782;55.904;13.396;2023-10-31T04:32:57;22.87;;;12.77;;
13421;SDS011;6782;55.904;13.396;2023-10-31T04:35:45;22.63;;;13.20;;
13421;SDS011;6782;55.904;13.396;2023-10-31T04:38:32;19.10;;;11.13;;
13421;SDS011;6782;55.904;13.396;2023-10-31T04:41:23;15.57;;;11.90;;
13421;SDS011;6782;55.904;13.396;2023-10-31T04:44:10;18.20;;;12.47;;
13421;SDS011;6782;55.904;13.396;2023-10-31T04:46:57;16.07;;;10.87;;
13421;SDS011;6782;55.904;13.396;2023-10-31T04:49:44;17.97;;;11.93;;
13421;SDS011;6782;55.904;13.396;2023-10-31T04:52:33;15.23;;;11.20;;
13421;SDS011;6782;55.904;13.396;2023-10-31T04:55:20;20.57;;;12.47;;
13421;SDS011;6782;55.904;13.396;2023-10-31T04:58:07;20.03;;;12.30;;
13421;SDS011;6782;55.904;13.396;2023-10-31T05:00:54;17.23;;;12.00;;
13421;SDS011;6782;55.904;13.396;2023-10-31T05:03:42;16.90;;;11.33;;
13421;SDS011;6782;55.904;13.396;2023-10-31T05:06:29;17.93;;;12.63;;
13421;SDS011;6782;55.904;13.396;2023-10-31T05:09:20;12.80;;;11.03;;
13421;SDS011;6782;55.904;13.396;2023-10-31T05:12:08;16.67;;;11.40;;
13421;SDS011;6782;55.904;13.396;2023-10-31T05:14:56;17.20;;;12.30;;
13421;SDS011;6782;55.904;13.396;2023-10-31T05:17:43;17.93;;;12.13;;
13421;SDS011;6782;55.904;13.396;2023-10-31T05:20:30;22.03;;;13.20;;
13421;SDS011;6782;55.904;13.396;2023-10-31T05:23:18;24.13;;;14.00;;
13421;SDS011;6782;55.904;13.396;2023-10-31T05:26:07;25.43;;;13.70;;
13421;SDS011;6782;55.904;13.396;2023-10-31T05:28:55;30.90;;;15.10;;
13421;SDS011;6782;55.904;13.396;2023-10-31T05:31:45;28.20;;;14.37;;
13421;SDS011;6782;55.904;13.396;2023-10-31T05:34:32;22.67;;;13.10;;
13421;SDS011;6782;55.904;13.396;2023-10-31T05:37:19;26.37;;;14.30;;
13421;SDS011;6782;55.904;13.396;2023-10-31T05:40:07;21.57;;;13.27;;
13421;SDS011;6782;55.904;13.396;2023-10-31T05:42:56;22.40;;;13.17;;
13421;SDS011;6782;55.904;13.396;2023-10-31T05:45:44;23.33;;;14.20;;
13421;SDS011;6782;55.904;13.396;2023-10-31T05:48:31;22.00;;;13.83;;
13421;SDS011;6782;55.904;13.396;2023-10-31T05:51:19;19.23;;;13.37;;
13421;SDS011;6782;55.904;13.396;2023-10-31T05:54:06;17.10;;;12.47;;
13421;SDS011;6782;55.904;13.396;2023-10-31T05:56:54;23.10;;;13.37;;
13421;SDS011;6782;55.904;13.396;2023-10-31T05:59:42;38.20;;;16.73;;
13421;SDS011;6782;55.904;13.396;2023-10-31T06:02:29;27.77;;;15.10;;
13421;SDS011;6782;55.904;13.396;2023-10-31T06:05:16;39.40;;;17.10;;
13421;SDS011;6782;55.904;13.396;2023-10-31T06:08:03;21.83;;;13.77;;
13421;SDS011;6782;55.904;13.396;2023-10-31T06:10:51;19.77;;;12.97;;
13421;SDS011;6782;55.904;13.396;2023-10-31T06:13:38;18.60;;;13.50;;
13421;SDS011;6782;55.904;13.396;2023-10-31T06:16:26;22.07;;;12.87;;
13421;SDS011;6782;55.904;13.396;2023-10-31T06:19:13;21.57;;;12.90;;
13421;SDS011;6782;55.904;13.396;2023-10-31T06:22:00;15.30;;;11.37;;
13421;SDS011;6782;55.904;13.396;2023-10-31T06:24:47;16.33;;;11.70;;
13421;SDS011;6782;55.904;13.396;2023-10-31T06:27:36;15.97;;;11.00;;
13421;SDS011;6782;55.904;13.396;2023-10-31T06:30:23;23.27;;;12.37;;
13421;SDS011;6782;55.904;13.396;2023-10-31T06:33:12;17.50;;;12.63;;
13421;SDS011;6782;55.904;13.396;2023-10-31T06:35:59;21.53;;;12.17;;
13421;SDS011;6782;55.904;13.396;2023-10-31T06:38:46;22.30;;;12.43;;
13421;SDS011;6782;55.904;13.396;2023-10-31T06:41:35;21.33;;;12.77;;
13421;SDS011;6782;55.904;13.396;2023-10-31T06:44:23;19.23;;;11.53;;
13421;SDS011;6782;55.904;13.396;2023-10-31T06:47:13;18.20;;;12.33;;
13421;SDS011;6782;55.904;13.396;2023-10-31T06:50:01;24.10;;;13.50;;
13421;SDS011;6782;55.904;13.396;2023-10-31T06:52:51;14.90;;;12.50;;
13421;SDS011;6782;55.904;13.396;2023-10-31T06:55:38;16.43;;;12.80;;
13421;SDS011;6782;55.904;13.396;2023-10-31T06:58:25;21.77;;;15.33;;
13421;SDS011;6782;55.904;13.396;2023-10-31T07:01:12;30.10;;;16.57;;
13421;SDS011;6782;55.904;13.396;2023-10-31T07:04:04;28.53;;;16.10;;
13421;SDS011;6782;55.904;13.396;2023-10-31T07:06:53;23.03;;;15.43;;
13421;SDS011;6782;55.904;13.396;2023-10-31T07:09:42;19.60;;;14.23;;
13421;SDS011;6782;55.904;13.396;2023-10-31T07:12:29;21.80;;;14.50;;
13421;SDS011;6782;55.904;13.396;2023-10-31T07:15:16;24.70;;;15.23;;
13421;SDS011;6782;55.904;13.396;2023-10-31T07:18:04;24.83;;;16.13;;
13421;SDS011;6782;55.904;13.396;2023-10-31T07:20:51;24.40;;;16.10;;
13421;SDS011;6782;55.904;13.396;2023-10-31T07:23:41;18.50;;;15.00;;
13421;SDS011;6782;55.904;13.396;2023-10-31T07:26:29;25.43;;;16.17;;
13421;SDS011;6782;55.904;13.396;2023-10-31T07:29:16;20.63;;;15.30;;
13421;SDS011;6782;55.904;13.396;2023-10-31T07:32:03;22.20;;;15.50;;
13421;SDS011;6782;55.904;13.396;2023-10-31T07:34:51;21.93;;;15.10;;
13421;SDS011;6782;55.904;13.396;2023-10-31T07:37:38;18.43;;;14.07;;
13421;SDS011;6782;55.904;13.396;2023-10-31T07:40:26;18.20;;;14.20;;
13421;SDS011;6782;55.904;13.396;2023-10-31T07:43:13;14.30;;;12.17;;
13421;SDS011;6782;55.904;13.396;2023-10-31T07:46:01;14.07;;;11.70;;
13421;SDS011;6782;55.904;13.396;2023-10-31T07:48:48;12.70;;;11.27;;
13421;SDS011;6782;55.904;13.396;2023-10-31T07:51:35;13.33;;;11.70;;
13421;SDS011;6782;55.904;13.396;2023-10-31T07:54:22;11.23;;;10.07;;
13421;SDS011;6782;55.904;13.396;2023-10-31T07:57:10;9.60;;;8.70;;
13421;SDS011;6782;55.904;13.396;2023-10-31T07:59:58;9.30;;;8.40;;
13421;SDS011;6782;55.904;13.396;2023-10-31T08:02:45;8.67;;;7.77;;
13421;SDS011;6782;55.904;13.396;2023-10-31T08:05:32;7.73;;;7.03;;
13421;SDS011;6782;55.904;13.396;2023-10-31T08:08:19;7.23;;;6.63;;
13421;SDS011;6782;55.904;13.396;2023-10-31T08:11:07;7.03;;;6.43;;
13421;SDS011;6782;55.904;13.396;2023-10-31T08:13:56;6.83;;;6.13;;
13421;SDS011;6782;55.904;13.396;2023-10-31T08:16:44;7.30;;;6.57;;
13421;SDS011;6782;55.904;13.396;2023-10-31T08:19:31;5.47;;;5.07;;
13421;SDS011;6782;55.904;13.396;2023-10-31T08:22:18;6.30;;;5.80;;
13421;SDS011;6782;55.904;13.396;2023-10-31T08:25:05;5.00;;;4.60;;
13421;SDS011;6782;55.904;13.396;2023-10-31T08:27:53;4.60;;;4.23;;
13421;SDS011;6782;55.904;13.396;2023-10-31T08:30:42;5.33;;;4.50;;
13421;SDS011;6782;55.904;13.396;2023-10-31T08:33:29;4.10;;;3.70;;
13421;SDS011;6782;55.904;13.396;2023-10-31T08:36:17;3.47;;;3.27;;
13421;SDS011;6782;55.904;13.396;2023-10-31T08:39:04;4.10;;;3.80;;
13421;SDS011;6782;55.904;13.396;2023-10-31T08:41:51;4.40;;;4.10;;
13421;SDS011;6782;55.904;13.396;2023-10-31T08:44:39;4.57;;;4.17;;
13421;SDS011;6782;55.904;13.396;2023-10-31T08:47:28;4.70;;;4.30;;
13421;SDS011;6782;55.904;13.396;2023-10-31T08:50:15;4.20;;;3.90;;
13421;SDS011;6782;55.904;13.396;2023-10-31T08:53:02;4.10;;;3.80;;
13421;SDS011;6782;55.904;13.396;2023-10-31T08:55:49;3.60;;;3.30;;
13421;SDS011;6782;55.904;13.396;2023-10-31T08:58:37;3.57;;;3.10;;
13421;SDS011;6782;55.904;13.396;2023-10-31T09:01:24;3.33;;;3.13;;
13421;SDS011;6782;55.904;13.396;2023-10-31T09:04:12;3.77;;;3.47;;
13421;SDS011;6782;55.904;13.396;2023-10-31T09:07:00;4.00;;;3.70;;
13421;SDS011;6782;55.904;13.396;2023-10-31T09:09:47;4.23;;;3.93;;
13421;SDS011;6782;55.904;13.396;2023-10-31T09:12:34;4.30;;;3.90;;
13421;SDS011;6782;55.904;13.396;2023-10-31T09:15:21;3.80;;;3.50;;
13421;SDS011;6782;55.904;13.396;2023-10-31T09:18:09;3.30;;;3.10;;
13421;SDS011;6782;55.904;13.396;2023-10-31T09:20:58;3.30;;;3.00;;
13421;SDS011;6782;55.904;13.396;2023-10-31T09:23:45;3.17;;;2.97;;
13421;SDS011;6782;55.904;13.396;2023-10-31T09:26:32;3.00;;;2.80;;
13421;SDS011;6782;55.904;13.396;2023-10-31T09:29:19;3.30;;;3.10;;
13421;SDS011;6782;55.904;13.396;2023-10-31T09:32:06;3.60;;;3.30;;
13421;SDS011;6782;55.904;13.396;2023-10-31T09:34:53;3.80;;;3.50;;
13421;SDS011;6782;55.904;13.396;2023-10-31T09:37:42;3.30;;;3.10;;
13421;SDS011;6782;55.904;13.396;2023-10-31T09:40:29;2.97;;;2.77;;
13421;SDS011;6782;55.904;13.396;2023-10-31T09:43:16;2.43;;;2.30;;
13421;SDS011;6782;55.904;13.396;2023-10-31T09:46:04;2.73;;;2.53;;
13421;SDS011;6782;55.904;13.396;2023-10-31T09:48:52;2.80;;;2.60;;
13421;SDS011;6782;55.904;13.396;2023-10-31T09:51:39;2.67;;;2.47;;
13421;SDS011;6782;55.904;13.396;2023-10-31T09:54:28;3.00;;;2.80;;
13421;SDS011;6782;55.904;13.396;2023-10-31T09:57:15;3.07;;;2.77;;
13421;SDS011;6782;55.904;13.396;2023-10-31T10:00:04;3.20;;;3.00;;
13421;SDS011;6782;55.904;13.396;2023-10-31T10:02:52;3.50;;;3.20;;
13421;SDS011;6782;55.904;13.396;2023-10-31T10:05:41;3.57;;;3.27;;
13421;SDS011;6782;55.904;13.396;2023-10-31T10:08:30;3.40;;;3.10;;
13421;SDS011;6782;55.904;13.396;2023-10-31T10:11:19;3.30;;;3.10;;
13421;SDS011;6782;55.904;13.396;2023-10-31T10:14:06;3.70;;;3.40;;
13421;SDS011;6782;55.904;13.396;2023-10-31T10:16:56;3.60;;;3.40;;
13421;SDS011;6782;55.904;13.396;2023-10-31T10:19:43;3.77;;;3.50;;
13421;SDS011;6782;55.904;13.396;2023-10-31T10:22:30;3.77;;;3.47;;
13421;SDS011;6782;55.904;13.396;2023-10-31T10:25:17;3.47;;;3.27;;
13421;SDS011;6782;55.904;13.396;2023-10-31T10:28:06;3.30;;;3.10;;
13421;SDS011;6782;55.904;13.396;2023-10-31T10:30:58;3.17;;;2.97;;
13421;SDS011;6782;55.904;13.396;2023-10-31T10:33:45;3.10;;;2.80;;
13421;SDS011;6782;55.904;13.396;2023-10-31T10:36:32;3.27;;;3.07;;
13421;SDS011;6782;55.904;13.396;2023-10-31T10:39:21;3.17;;;2.97;;
13421;SDS011;6782;55.904;13.396;2023-10-31T10:42:09;3.60;;;3.30;;
13421;SDS011;6782;55.904;13.396;2023-10-31T10:45:01;3.20;;;3.00;;
13421;SDS011;6782;55.904;13.396;2023-10-31T10:47:50;3.20;;;3.00;;
13421;SDS011;6782;55.904;13.396;2023-10-31T10:50:38;3.13;;;2.93;;
13421;SDS011;6782;55.904;13.396;2023-10-31T10:53:30;3.07;;;2.87;;
13421;SDS011;6782;55.904;13.396;2023-10-31T10:56:25;3.30;;;3.10;;
13421;SDS011;6782;55.904;13.396;2023-10-31T10:59:16;3.80;;;3.43;;
13421;SDS011;6782;55.904;13.396;2023-10-31T11:02:08;4.03;;;3.47;;
13421;SDS011;6782;55.904;13.396;2023-10-31T11:04:58;3.77;;;3.47;;
13421;SDS011;6782;55.904;13.396;2023-10-31T11:07:46;3.73;;;3.43;;
13421;SDS011;6782;55.904;13.396;2023-10-31T11:10:35;3.93;;;3.63;;
13421;SDS011;6782;55.904;13.396;2023-10-31T11:13:23;4.00;;;3.70;;
13421;SDS011;6782;55.904;13.396;2023-10-31T11:16:13;3.87;;;3.57;;
13421;SDS011;6782;55.904;13.396;2023-10-31T11:19:07;3.80;;;3.50;;
13421;SDS011;6782;55.904;13.396;2023-10-31T11:21:57;3.97;;;3.67;;
13421;SDS011;6782;55.904;13.396;2023-10-31T11:24:45;3.70;;;3.50;;
13421;SDS011;6782;55.904;13.396;2023-10-31T11:27:33;4.30;;;4.00;;
13421;SDS011;6782;55.904;13.396;2023-10-31T11:30:21;3.93;;;3.53;;
13421;SDS011;6782;55.904;13.396;2023-10-31T11:33:13;3.50;;;3.30;;
13421;SDS011;6782;55.904;13.396;2023-10-31T11:36:03;2.93;;;2.73;;
13421;SDS011;6782;55.904;13.396;2023-10-31T11:38:51;3.00;;;2.80;;
13421;SDS011;6782;55.904;13.396;2023-10-31T11:41:58;3.33;;;3.13;;
13421;SDS011;6782;55.904;13.396;2023-10-31T11:44:54;3.30;;;3.10;;
13421;SDS011;6782;55.904;13.396;2023-10-31T11:47:47;2.70;;;2.50;;
13421;SDS011;6782;55.904;13.396;2023-10-31T11:50:35;3.17;;;2.87;;
13421;SDS011;6782;55.904;13.396;2023-10-31T11:53:25;2.70;;;2.50;;
13421;SDS011;6782;55.904;13.396;2023-10-31T11:56:12;2.40;;;2.20;;
13421;SDS011;6782;55.904;13.396;2023-10-31T11:59:01;2.33;;;2.23;;
13421;SDS011;6782;55.904;13.396;2023-10-31T12:01:50;2.37;;;2.17;;
13421;SDS011;6782;55.904;13.396;2023-10-31T12:04:37;2.07;;;1.97;;
13421;SDS011;6782;55.904;13.396;2023-10-31T12:07:24;2.27;;;2.10;;
13421;SDS011;6782;55.904;13.396;2023-10-31T12:10:13;1.97;;;1.77;;
13421;SDS011;6782;55.904;13.396;2023-10-31T12:13:08;2.00;;;1.90;;
13421;SDS011;6782;55.904;13.396;2023-10-31T12:15:59;1.70;;;1.60;;
13421;SDS011;6782;55.904;13.396;2023-10-31T12:18:53;1.60;;;1.50;;
13421;SDS011;6782;55.904;13.396;2023-10-31T12:21:41;1.77;;;1.67;;
13421;SDS011;6782;55.904;13.396;2023-10-31T12:24:29;1.80;;;1.70;;
13421;SDS011;6782;55.904;13.396;2023-10-31T12:27:18;2.37;;;1.90;;
13421;SDS011;6782;55.904;13.396;2023-10-31T12:30:06;1.60;;;1.50;;
13421;SDS011;6782;55.904;13.396;2023-10-31T12:32:54;2.10;;;1.70;;
13421;SDS011;6782;55.904;13.396;2023-10-31T12:35:42;1.70;;;1.60;;
13421;SDS011;6782;55.904;13.396;2023-10-31T12:38:30;1.80;;;1.70;;
13421;SDS011;6782;55.904;13.396;2023-10-31T12:41:18;1.47;;;1.47;;
13421;SDS011;6782;55.904;13.396;2023-10-31T12:44:08;1.60;;;1.50;;
13421;SDS011;6782;55.904;13.396;2023-10-31T12:46:56;1.20;;;1.20;;
13421;SDS011;6782;55.904;13.396;2023-10-31T12:49:43;1.30;;;1.30;;
13421;SDS011;6782;55.904;13.396;2023-10-31T12:52:44;0.97;;;0.97;;
13421;SDS011;6782;55.904;13.396;2023-10-31T12:55:37;1.20;;;1.10;;
13421;SDS011;6782;55.904;13.396;2023-10-31T12:58:25;1.17;;;1.17;;
13421;SDS011;6782;55.904;13.396;2023-10-31T13:01:14;2.30;;;1.20;;
13421;SDS011;6782;55.904;13.396;2023-10-31T13:04:03;1.00;;;1.00;;
13421;SDS011;6782;55.904;13.396;2023-10-31T13:06:54;1.80;;;1.10;;
13421;SDS011;6782;55.904;13.396;2023-10-31T13:09:42;1.30;;;1.20;;
13421;SDS011;6782;55.904;13.396;2023-10-31T13:12:32;1.13;;;1.10;;
13421;SDS011;6782;55.904;13.396;2023-10-31T13:15:19;1.43;;;1.00;;
13421;SDS011;6782;55.904;13.396;2023-10-31T13:18:10;1.37;;;1.07;;
13421;SDS011;6782;55.904;13.396;2023-10-31T13:20:59;1.07;;;1.00;;
13421;SDS011;6782;55.904;13.396;2023-10-31T13:23:46;0.90;;;0.90;;
13421;SDS011;6782;55.904;13.396;2023-10-31T13:26:33;2.50;;;1.00;;
13421;SDS011;6782;55.904;13.396;2023-10-31T13:29:21;2.13;;;0.90;;
13421;SDS011;6782;55.904;13.396;2023-10-31T13:32:10;1.20;;;1.10;;
13421;SDS011;6782;55.904;13.396;2023-10-31T13:34:59;0.83;;;0.83;;
13421;SDS011;6782;55.904;13.396;2023-10-31T13:37:46;1.07;;;0.97;;
13421;SDS011;6782;55.904;13.396;2023-10-31T13:40:33;0.93;;;0.90;;
13421;SDS011;6782;55.904;13.396;2023-10-31T13:43:20;0.80;;;0.80;;
13421;SDS011;6782;55.904;13.396;2023-10-31T13:46:07;0.80;;;0.80;;
13421;SDS011;6782;55.904;13.396;2023-10-31T13:48:55;0.93;;;0.83;;
13421;SDS011;6782;55.904;13.396;2023-10-31T13:51:47;0.70;;;0.70;;
13421;SDS011;6782;55.904;13.396;2023-10-31T13:54:34;0.90;;;0.80;;
13421;SDS011;6782;55.904;13.396;2023-10-31T13:57:21;0.70;;;0.60;;
13421;SDS011;6782;55.904;13.396;2023-10-31T14:00:09;0.57;;;0.57;;
13421;SDS011;6782;55.904;13.396;2023-10-31T14:02:57;0.70;;;0.70;;
13421;SDS011;6782;55.904;13.396;2023-10-31T14:05:44;0.70;;;0.70;;
13421;SDS011;6782;55.904;13.396;2023-10-31T14:11:22;0.70;;;0.70;;
13421;SDS011;6782;55.904;13.396;2023-10-31T14:14:09;0.90;;;0.90;;
13421;SDS011;6782;55.904;13.396;2023-10-31T14:16:58;1.40;;;0.83;;
13421;SDS011;6782;55.904;13.396;2023-10-31T14:19:45;0.80;;;0.80;;
13421;SDS011;6782;55.904;13.396;2023-10-31T14:22:32;0.97;;;0.90;;
13421;SDS011;6782;55.904;13.396;2023-10-31T14:25:21;1.03;;;1.00;;
13421;SDS011;6782;55.904;13.396;2023-10-31T14:28:08;1.63;;;0.83;;
13421;SDS011;6782;55.904;13.396;2023-10-31T14:30:55;0.70;;;0.70;;
13421;SDS011;6782;55.904;13.396;2023-10-31T14:33:42;0.60;;;0.60;;
13421;SDS011;6782;55.904;13.396;2023-10-31T14:36:30;0.70;;;0.70;;
13421;SDS011;6782;55.904;13.396;2023-10-31T14:39:17;0.70;;;0.70;;
13421;SDS011;6782;55.904;13.396;2023-10-31T14:42:05;0.70;;;0.70;;
13421;SDS011;6782;55.904;13.396;2023-10-31T14:44:52;0.73;;;0.73;;
13421;SDS011;6782;55.904;13.396;2023-10-31T14:47:42;0.73;;;0.73;;
13421;SDS011;6782;55.904;13.396;2023-10-31T14:50:29;0.70;;;0.70;;
13421;SDS011;6782;55.904;13.396;2023-10-31T14:53:16;0.70;;;0.70;;
13421;SDS011;6782;55.904;13.396;2023-10-31T14:56:04;0.60;;;0.60;;
13421;SDS011;6782;55.904;13.396;2023-10-31T14:58:53;0.40;;;0.40;;
13421;SDS011;6782;55.904;13.396;2023-10-31T15:01:40;0.70;;;0.70;;
13421;SDS011;6782;55.904;13.396;2023-10-31T15:04:27;0.60;;;0.60;;
13421;SDS011;6782;55.904;13.396;2023-10-31T15:07:14;0.60;;;0.60;;
13421;SDS011;6782;55.904;13.396;2023-10-31T15:10:02;0.60;;;0.60;;
13421;SDS011;6782;55.904;13.396;2023-10-31T15:12:49;0.80;;;0.63;;
13421;SDS011;6782;55.904;13.396;2023-10-31T15:15:37;0.57;;;0.50;;
13421;SDS011;6782;55.904;13.396;2023-10-31T15:18:24;0.67;;;0.60;;
13421;SDS011;6782;55.904;13.396;2023-10-31T15:21:11;0.63;;;0.50;;
13421;SDS011;6782;55.904;13.396;2023-10-31T15:23:58;0.30;;;0.30;;
13421;SDS011;6782;55.904;13.396;2023-10-31T15:26:46;0.30;;;0.30;;
13421;SDS011;6782;55.904;13.396;2023-10-31T15:29:33;0.27;;;0.27;;
13421;SDS011;6782;55.904;13.396;2023-10-31T15:32:21;0.83;;;0.47;;
13421;SDS011;6782;55.904;13.396;2023-10-31T15:35:08;0.37;;;0.37;;
13421;SDS011;6782;55.904;13.396;2023-10-31T15:37:56;0.43;;;0.40;;
13421;SDS011;6782;55.904;13.396;2023-10-31T15:40:43;0.40;;;0.40;;
13421;SDS011;6782;55.904;13.396;2023-10-31T15:43:30;0.50;;;0.43;;
13421;SDS011;6782;55.904;13.396;2023-10-31T15:46:17;0.40;;;0.40;;
13421;SDS011;6782;55.904;13.396;2023-10-31T15:49:05;1.33;;;0.60;;
13421;SDS011;6782;55.904;13.396;2023-10-31T15:51:52;0.40;;;0.40;;
13421;SDS011;6782;55.904;13.396;2023-10-31T15:54:40;0.60;;;0.60;;
13421;SDS011;6782;55.904;13.396;2023-10-31T15:57:27;0.93;;;0.50;;
13421;SDS011;6782;55.904;13.396;2023-10-31T16:00:14;1.10;;;0.40;;
13421;SDS011;6782;55.904;13.396;2023-10-31T16:03:02;0.40;;;0.40;;
13421;SDS011;6782;55.904;13.396;2023-10-31T16:05:52;1.20;;;0.50;;
13421;SDS011;6782;55.904;13.396;2023-10-31T16:08:39;0.40;;;0.40;;
13421;SDS011;6782;55.904;13.396;2023-10-31T16:11:26;0.40;;;0.40;;
13421;SDS011;6782;55.904;13.396;2023-10-31T16:14:13;0.50;;;0.50;;
13421;SDS011;6782;55.904;13.396;2023-10-31T16:17:07;0.50;;;0.40;;
13421;SDS011;6782;55.904;13.396;2023-10-31T16:19:54;0.60;;;0.60;;
13421;SDS011;6782;55.904;13.396;2023-10-31T16:22:42;0.90;;;0.60;;
13421;SDS011;6782;55.904;13.396;2023-10-31T16:25:29;0.60;;;0.60;;
13421;SDS011;6782;55.904;13.396;2023-10-31T16:28:16;1.40;;;0.60;;
13421;SDS011;6782;55.904;13.396;2023-10-31T16:31:03;0.60;;;0.60;;
13421;SDS011;6782;55.904;13.396;2023-10-31T16:33:51;0.73;;;0.50;;
13421;SDS011;6782;55.904;13.396;2023-10-31T16:36:38;0.33;;;0.33;;
13421;SDS011;6782;55.904;13.396;2023-10-31T16:39:26;1.03;;;0.50;;
13421;SDS011;6782;55.904;13.396;2023-10-31T16:42:14;0.50;;;0.47;;
13421;SDS011;6782;55.904;13.396;2023-10-31T16:45:01;1.37;;;0.70;;